Time;durP1;ratioP1;P1;durP2;ratioP2;P2;SDS_P1;SDS_P2;PMS_P1;PMS_P2;Temp;Humidity;BMP_temperature;BMP_pressure;BME280_temperature;BME280_humidity;BME280_pressure;Samples;Min_cycle;Max_cycle;Signal;HPM_P1;HPM_P2
2022/03/20 11:52:09;;;;;;;52.83;29.92;;;13.70;99.90;;;;;;5060277;28;20423;-60
2022/03/20 11:54:40;;;;;;;56.92;30.73;;;13.30;99.90;;;;;;5055374;28;20048;-60
2022/03/20 11:57:28;;;;;;;58.78;30.15;;;13.00;99.90;;;;;;5053912;28;20022;-60
2022/03/20 11:59:55;;;;;;;59.13;30.38;;;12.90;99.90;;;;;;5053893;28;20021;-60
2022/03/20 12:02:30;;;;;;;57.60;30.65;;;12.80;99.90;;;;;;5063383;28;20024;-59
2022/03/20 12:05:01;;;;;;;59.30;30.65;;;12.70;99.90;;;;;;5054363;28;20025;-60
2022/03/20 12:07:49;;;;;;;53.78;30.00;;;12.60;99.90;;;;;;5059132;28;20029;-60
2022/03/20 12:10:52;;;;;;;55.10;29.73;;;12.50;99.90;;;;;;5051661;28;20108;-60
2022/03/20 12:13:39;;;;;;;56.08;29.48;;;12.40;99.90;;;;;;5055879;28;20040;-61
2022/03/20 12:16:05;;;;;;;67.65;31.48;;;12.40;99.90;;;;;;5053285;28;20032;-60
2022/03/20 12:19:06;;;;;;;62.03;30.02;;;12.40;99.90;;;;;;5053584;28;20022;-60
2022/03/20 12:21:54;;;;;;;53.03;29.65;;;12.40;99.90;;;;;;5050426;28;20445;-60
2022/03/20 12:24:35;;;;;;;52.60;27.30;;;12.30;99.90;;;;;;5050181;28;20025;-60
2022/03/20 12:27:18;;;;;;;58.63;28.92;;;12.40;99.90;;;;;;5052695;28;20116;-60
2022/03/20 12:29:47;;;;;;;54.83;30.70;;;12.30;99.90;;;;;;5050883;28;20036;-61
2022/03/20 12:32:14;;;;;;;60.65;29.25;;;12.30;99.90;;;;;;5052461;28;20083;-61
2022/03/20 12:34:41;;;;;;;59.58;30.05;;;12.30;99.90;;;;;;5054739;28;20020;-61
2022/03/20 12:37:37;;;;;;;54.03;30.52;;;12.30;99.90;;;;;;5048791;28;20041;-61
2022/03/20 12:40:02;;;;;;;54.85;28.48;;;12.30;99.90;;;;;;5054381;28;20344;-61
2022/03/20 12:42:30;;;;;;;55.03;29.83;;;12.30;99.90;;;;;;5054054;28;20039;-61
2022/03/20 12:44:56;;;;;;;55.45;28.75;;;12.40;99.90;;;;;;5052166;28;20083;-61
2022/03/20 12:47:27;;;;;;;55.42;29.27;;;12.40;99.90;;;;;;5054393;28;20075;-59
2022/03/20 12:49:59;;;;;;;59.40;31.80;;;12.50;99.90;;;;;;5053379;28;20024;-58
2022/03/20 12:52:27;;;;;;;56.38;30.85;;;12.50;99.90;;;;;;5052160;28;20644;-61
2022/03/20 12:54:57;;;;;;;60.17;30.65;;;12.50;99.90;;;;;;5054509;28;20430;-58
2022/03/20 12:57:43;;;;;;;67.32;30.33;;;12.50;99.90;;;;;;5048837;28;21932;-58
2022/03/20 13:00:12;;;;;;;53.83;29.48;;;12.50;99.90;;;;;;5048760;28;20037;-61
2022/03/20 13:03:00;;;;;;;56.90;32.00;;;12.50;99.90;;;;;;5038071;28;20044;-61
2022/03/20 13:05:52;;;;;;;56.17;30.15;;;12.50;99.90;;;;;;5039810;28;20436;-61
2022/03/20 13:08:34;;;;;;;55.17;29.92;;;12.40;99.90;;;;;;5041717;28;20063;-57
2022/03/20 13:11:48;;;;;;;51.08;29.75;;;12.40;99.90;;;;;;5040030;28;20076;-61
2022/03/20 13:13:58;;;;;;;55.83;29.27;;;12.30;99.90;;;;;;5039559;28;20056;-60
2022/03/20 13:16:26;;;;;;;60.35;29.63;;;12.40;99.90;;;;;;5039050;28;20029;-61
2022/03/20 13:18:52;;;;;;;53.65;29.63;;;12.30;99.90;;;;;;5037941;28;20013;-61
2022/03/20 13:21:17;;;;;;;58.72;30.23;;;12.30;99.90;;;;;;5036955;28;20111;-60
2022/03/20 13:23:45;;;;;;;53.95;30.00;;;12.20;99.90;;;;;;5032370;28;20056;-60
2022/03/20 13:26:13;;;;;;;55.88;29.60;;;12.10;99.90;;;;;;5043810;28;20104;-58
2022/03/20 13:28:40;;;;;;;61.33;31.60;;;12.10;99.90;;;;;;5035049;28;20037;-61
2022/03/20 13:31:20;;;;;;;57.83;32.05;;;11.80;99.90;;;;;;5035976;28;20632;-60
2022/03/20 13:33:55;;;;;;;55.35;30.00;;;11.60;99.90;;;;;;5036467;28;20113;-60
2022/03/20 13:36:24;;;;;;;;;;;11.40;99.90;;;;;;5035842;28;20036;-60
2022/03/20 13:38:53;;;;;;;52.40;29.77;;;11.30;99.90;;;;;;5045431;28;19909;-58
2022/03/20 13:41:22;;;;;;;56.35;31.35;;;11.20;99.90;;;;;;5042806;28;20057;-61
2022/03/20 13:43:54;;;;;;;54.95;30.95;;;11.00;99.90;;;;;;5041051;28;20026;-58
2022/03/20 13:46:29;;;;;;;63.05;31.75;;;10.90;99.90;;;;;;5037419;28;20036;-60
2022/03/20 13:49:04;;;;;;;56.28;30.70;;;10.90;99.90;;;;;;5036268;28;20029;-60
2022/03/20 13:51:32;;;;;;;57.10;30.15;;;11.00;99.90;;;;;;5037526;28;20033;-58
2022/03/20 13:54:18;;;;;;;53.38;30.40;;;11.00;99.90;;;;;;5039501;28;20024;-60
2022/03/20 13:56:46;;;;;;;60.15;32.00;;;11.00;99.90;;;;;;5041247;28;20033;-64
2022/03/20 13:59:13;;;;;;;57.63;30.77;;;11.00;99.90;;;;;;5045494;23;20013;-62
2022/03/20 14:01:49;;;;;;;57.17;30.02;;;11.10;99.90;;;;;;5031167;28;20410;-61
2022/03/20 14:04:17;;;;;;;53.25;28.88;;;11.20;99.90;;;;;;5010092;28;20033;-62
2022/03/20 14:06:46;;;;;;;52.40;28.65;;;11.30;99.90;;;;;;5028645;28;20025;-62
2022/03/20 14:09:14;;;;;;;52.03;27.60;;;11.40;99.90;;;;;;5023912;28;20053;-61
2022/03/20 14:11:40;;;;;;;49.03;25.85;;;11.50;99.90;;;;;;5022948;28;20092;-62
2022/03/20 14:14:08;;;;;;;50.28;26.17;;;11.70;99.90;;;;;;5013584;28;20113;-61
2022/03/20 14:16:37;;;;;;;46.45;27.42;;;11.80;99.90;;;;;;5025225;28;20044;-61
2022/03/20 14:19:07;;;;;;;44.95;25.48;;;11.90;99.90;;;;;;5022095;28;20029;-62
2022/03/20 14:21:35;;;;;;;45.33;25.02;;;12.00;99.90;;;;;;5022914;28;20574;-63
2022/03/20 14:24:06;;;;;;;49.08;25.50;;;12.10;99.90;;;;;;5026775;28;20041;-64
2022/03/20 14:26:45;;;;;;;48.92;26.13;;;12.20;99.90;;;;;;5025610;28;20499;-62
2022/03/20 14:40:47;;;;;;;43.83;26.67;;;12.00;99.90;;;;;;5022346;28;20048;-61
2022/03/20 14:43:13;;;;;;;51.75;27.60;;;12.00;99.90;;;;;;5028331;28;20030;-59
2022/03/20 14:45:42;;;;;;;53.08;28.27;;;12.00;99.90;;;;;;5027223;28;20033;-58
2022/03/20 14:48:11;;;;;;;45.55;27.13;;;12.00;99.90;;;;;;5024854;28;20537;-61
2022/03/20 14:50:38;;;;;;;52.53;27.67;;;12.00;99.90;;;;;;5029984;28;20503;-60
2022/03/20 14:53:05;;;;;;;56.67;29.65;;;12.10;99.90;;;;;;5024417;28;20025;-59
2022/03/20 14:55:31;;;;;;;56.80;30.27;;;12.10;99.90;;;;;;5024107;28;20025;-59
2022/03/20 14:57:57;;;;;;;55.38;28.75;;;12.00;99.90;;;;;;5020740;28;20025;-60
2022/03/20 15:00:24;;;;;;;52.10;27.60;;;12.00;99.90;;;;;;5023245;28;20039;-60
2022/03/20 15:02:49;;;;;;;48.10;28.30;;;12.00;99.90;;;;;;5019134;28;20037;-60
2022/03/20 15:05:15;;;;;;;55.63;28.20;;;12.10;99.90;;;;;;5020226;28;20037;-59
2022/03/20 15:11:23;;;;;;;48.83;27.33;;;12.10;99.90;;;;;;5019760;28;20033;-61
2022/03/20 15:13:28;;;;;;;51.70;26.55;;;12.30;99.90;;;;;;4961028;28;20417;-60
2022/03/20 15:15:54;;;;;;;47.63;24.92;;;12.20;99.90;;;;;;5011343;28;20037;-63
2022/03/20 15:18:19;;;;;;;49.45;26.63;;;12.30;99.90;;;;;;5018073;28;20843;-63
2022/03/20 15:20:45;;;;;;;53.88;27.13;;;12.20;99.90;;;;;;5019479;28;20037;-63
2022/03/20 15:23:12;;;;;;;46.45;25.92;;;12.20;99.90;;;;;;5021560;28;20032;-62
2022/03/20 15:25:41;;;;;;;46.30;24.73;;;12.10;99.90;;;;;;5030791;28;20119;-65
2022/03/20 15:28:06;;;;;;;40.72;23.88;;;12.10;99.90;;;;;;5029628;28;20043;-63
2022/03/20 15:30:32;;;;;;;45.22;24.38;;;12.00;99.90;;;;;;5027678;28;20029;-61
2022/03/20 15:33:00;;;;;;;45.67;24.05;;;12.10;99.90;;;;;;5029834;28;20036;-62
2022/03/20 15:35:26;;;;;;;45.38;23.80;;;12.10;99.90;;;;;;5027492;28;20025;-63
2022/03/20 15:37:52;;;;;;;39.72;22.92;;;12.00;99.90;;;;;;5017324;28;20038;-61
2022/03/20 15:40:17;;;;;;;45.00;22.67;;;12.10;99.90;;;;;;5024858;28;20032;-61
2022/03/20 15:42:44;;;;;;;43.10;22.13;;;12.00;99.90;;;;;;5023959;28;20044;-66
2022/03/20 15:45:10;;;;;;;44.20;22.80;;;12.00;99.90;;;;;;5017384;28;20052;-65
2022/03/20 15:47:36;;;;;;;51.17;23.17;;;12.10;99.90;;;;;;5022007;28;20029;-64
2022/03/20 15:50:04;;;;;;;51.72;23.17;;;12.20;99.90;;;;;;5021950;28;20487;-63
2022/03/20 15:52:29;;;;;;;43.45;22.40;;;12.40;99.90;;;;;;5024675;28;20104;-62
2022/03/20 15:54:55;;;;;;;42.65;22.95;;;12.40;99.90;;;;;;5021843;28;20116;-62
2022/03/20 15:57:21;;;;;;;45.88;22.80;;;12.50;99.90;;;;;;5020398;28;20034;-60
2022/03/20 15:59:47;;;;;;;43.22;22.67;;;12.60;99.90;;;;;;5023742;28;20033;-61
2022/03/20 16:02:12;;;;;;;39.53;21.77;;;12.70;99.90;;;;;;5022970;28;20068;-61
2022/03/20 16:04:38;;;;;;;39.10;22.33;;;12.70;99.90;;;;;;5014097;28;20026;-61
2022/03/20 16:07:03;;;;;;;40.55;22.25;;;12.60;99.90;;;;;;5018688;28;20036;-62
2022/03/20 16:09:29;;;;;;;38.65;21.58;;;12.70;99.90;;;;;;5013772;28;20755;-62
2022/03/20 16:11:55;;;;;;;38.75;20.75;;;12.60;99.90;;;;;;5005724;28;20030;-62
2022/03/20 16:14:20;;;;;;;35.08;19.98;;;12.50;99.90;;;;;;5023342;28;20112;-63
2022/03/20 16:16:46;;;;;;;38.80;19.83;;;12.40;99.90;;;;;;5002230;28;20672;-60
2022/03/20 16:19:11;;;;;;;31.98;18.65;;;12.50;99.90;;;;;;5019955;28;20021;-60
2022/03/20 16:21:37;;;;;;;37.58;19.90;;;12.60;99.90;;;;;;5018683;28;20037;-63
2022/03/20 16:29:31;;;;;;;32.10;15.85;;;12.80;99.90;;;;;;5015859;28;20665;-63
2022/03/20 16:32:13;;;;;;;36.13;16.80;;;12.70;99.90;;;;;;5023442;28;20033;-62
2022/03/20 16:34:43;;;;;;;30.40;16.50;;;12.50;99.90;;;;;;5027770;28;20025;-63
2022/03/20 16:37:09;;;;;;;30.45;16.13;;;12.20;99.90;;;;;;5032940;28;20590;-62
2022/03/20 16:39:35;;;;;;;31.77;16.15;;;12.20;99.90;;;;;;5027558;28;20471;-59
2022/03/20 16:42:01;;;;;;;26.92;15.13;;;12.00;99.90;;;;;;5024151;28;20029;-62
2022/03/20 16:44:30;;;;;;;28.35;14.60;;;11.90;99.90;;;;;;5023392;28;20069;-59
2022/03/20 16:46:56;;;;;;;27.30;13.65;;;11.90;99.90;;;;;;5025221;28;20419;-62
2022/03/20 16:49:22;;;;;;;29.08;13.80;;;11.90;99.90;;;;;;5027722;28;20029;-59
2022/03/20 16:51:47;;;;;;;22.60;13.20;;;11.80;99.90;;;;;;5000387;28;20484;-60
2022/03/20 16:54:14;;;;;;;26.70;14.18;;;11.80;99.90;;;;;;5017952;28;20130;-61
2022/03/20 16:56:40;;;;;;;27.65;14.05;;;11.70;99.90;;;;;;5019863;28;20053;-64
2022/03/20 16:59:05;;;;;;;22.35;13.18;;;11.70;99.90;;;;;;5020176;28;20510;-63
2022/03/20 17:01:31;;;;;;;35.97;14.48;;;11.60;99.90;;;;;;5016250;28;20033;-61
2022/03/20 17:03:57;;;;;;;24.85;13.68;;;11.60;99.90;;;;;;5024069;28;20376;-61
2022/03/20 17:06:23;;;;;;;27.90;13.65;;;11.70;99.90;;;;;;5032572;28;20040;-58
2022/03/20 17:08:49;;;;;;;24.77;13.32;;;11.60;99.90;;;;;;5025609;28;20028;-62
2022/03/20 17:11:17;;;;;;;28.63;15.90;;;11.60;99.90;;;;;;5014171;28;20048;-62
2022/03/20 17:13:44;;;;;;;27.88;16.15;;;11.60;99.90;;;;;;5018855;28;20029;-62
2022/03/20 17:16:11;;;;;;;29.90;15.05;;;11.50;99.90;;;;;;5015190;28;20033;-62
2022/03/20 17:18:37;;;;;;;35.45;16.00;;;11.50;99.90;;;;;;5019633;28;20491;-64
2022/03/20 17:21:04;;;;;;;28.45;13.98;;;11.50;99.90;;;;;;5019811;28;20127;-62
2022/03/20 17:23:30;;;;;;;28.75;14.25;;;11.50;99.90;;;;;;5009590;28;20439;-62
2022/03/20 17:25:58;;;;;;;35.22;15.18;;;11.40;99.90;;;;;;5022078;28;20533;-59
2022/03/20 17:28:23;;;;;;;31.05;15.70;;;11.40;99.90;;;;;;5017250;28;20037;-61
2022/03/20 17:30:49;;;;;;;35.17;14.95;;;11.40;99.90;;;;;;5014810;28;20407;-62
2022/03/20 17:33:15;;;;;;;25.58;14.93;;;11.30;99.90;;;;;;5017735;28;20026;-61
2022/03/20 17:35:42;;;;;;;51.58;20.00;;;11.40;99.90;;;;;;5020012;28;20328;-63
2022/03/20 17:38:08;;;;;;;25.65;14.70;;;11.40;99.90;;;;;;5018124;28;20022;-66
2022/03/20 17:40:34;;;;;;;32.55;14.07;;;11.30;99.90;;;;;;5020788;28;20032;-63
2022/03/20 17:43:01;;;;;;;27.63;14.70;;;11.30;99.90;;;;;;5019568;28;20034;-62
2022/03/20 17:45:28;;;;;;;30.70;14.32;;;11.30;99.90;;;;;;5018138;28;20033;-65
2022/03/20 17:47:54;;;;;;;26.20;13.85;;;11.30;99.90;;;;;;5022882;28;20037;-58
2022/03/20 17:50:20;;;;;;;28.88;14.70;;;11.20;99.90;;;;;;5019594;28;20040;-61
2022/03/20 17:52:46;;;;;;;28.30;14.80;;;11.20;99.90;;;;;;5018401;28;20120;-61
2022/03/20 17:55:12;;;;;;;28.23;13.88;;;11.20;99.90;;;;;;5016773;28;20029;-62
2022/03/20 17:57:38;;;;;;;33.50;13.43;;;11.10;99.90;;;;;;5017233;28;20041;-61
2022/03/20 18:00:05;;;;;;;28.33;13.63;;;11.10;99.90;;;;;;5001138;28;20033;-63
2022/03/20 18:07:59;;;;;;;27.10;12.65;;;11.10;99.90;;;;;;5017791;28;20086;-64
2022/03/20 18:10:33;;;;;;;43.50;18.55;;;11.10;99.90;;;;;;5015750;28;20021;-64
2022/03/20 18:12:59;;;;;;;29.83;13.07;;;11.20;99.90;;;;;;5016164;28;20029;-62
2022/03/20 18:15:26;;;;;;;25.63;13.98;;;11.10;99.90;;;;;;5012851;28;20043;-62
2022/03/20 18:17:53;;;;;;;29.67;13.98;;;11.10;99.90;;;;;;5016575;28;20761;-61
2022/03/20 18:20:23;;;;;;;25.33;12.63;;;11.10;99.90;;;;;;5021293;28;20033;-62
2022/03/20 18:22:49;;;;;;;28.55;12.70;;;11.10;99.90;;;;;;5019342;28;20036;-63
2022/03/20 18:25:17;;;;;;;25.58;13.23;;;11.10;99.90;;;;;;5016018;28;20029;-63
2022/03/20 18:27:48;;;;;;;26.63;12.82;;;11.00;99.90;;;;;;5019629;28;20022;-63
2022/03/20 18:30:15;;;;;;;28.75;13.52;;;11.00;99.90;;;;;;5016981;28;20030;-62
2022/03/20 18:32:41;;;;;;;24.58;12.80;;;10.90;99.90;;;;;;5015958;28;20096;-65
2022/03/20 18:35:10;;;;;;;28.35;14.25;;;10.90;99.90;;;;;;5017618;28;20033;-64
2022/03/20 18:37:36;;;;;;;25.60;13.02;;;10.80;99.90;;;;;;5016266;28;20024;-64
2022/03/20 18:40:04;;;;;;;24.13;12.35;;;10.80;99.90;;;;;;5014085;28;20037;-63
2022/03/20 18:42:30;;;;;;;26.73;12.93;;;10.80;99.90;;;;;;5010264;28;20038;-65
2022/03/20 18:44:57;;;;;;;26.73;13.15;;;10.70;99.90;;;;;;5012373;28;20029;-63
2022/03/20 18:47:24;;;;;;;30.33;14.57;;;10.70;99.90;;;;;;5014857;28;20036;-64
2022/03/20 18:49:51;;;;;;;27.65;13.50;;;10.70;99.90;;;;;;5017665;28;20064;-63
2022/03/20 18:52:18;;;;;;;27.98;13.43;;;10.70;99.90;;;;;;5001822;28;20629;-64
2022/03/20 18:54:47;;;;;;;35.30;14.48;;;10.70;99.90;;;;;;5018452;28;20061;-63
2022/03/20 18:57:14;;;;;;;28.05;13.60;;;10.60;99.90;;;;;;5014714;28;20132;-64
2022/03/20 18:59:40;;;;;;;27.05;13.40;;;10.60;99.90;;;;;;5012853;28;20503;-64
2022/03/20 19:02:07;;;;;;;27.83;14.00;;;10.60;99.90;;;;;;5018194;28;20028;-62
2022/03/20 19:04:33;;;;;;;26.73;13.10;;;10.50;99.90;;;;;;5004092;28;20033;-62
2022/03/20 19:06:59;;;;;;;26.80;12.70;;;10.50;99.90;;;;;;5020815;28;20025;-60
2022/03/20 19:09:27;;;;;;;23.83;12.27;;;10.50;99.90;;;;;;5016014;28;20022;-63
2022/03/20 19:11:53;;;;;;;26.65;11.57;;;10.60;99.90;;;;;;5018323;28;20527;-60
2022/03/20 19:14:20;;;;;;;30.23;11.82;;;10.60;99.90;;;;;;5020791;28;20087;-58
2022/03/20 19:16:47;;;;;;;34.53;12.18;;;10.60;99.90;;;;;;5013722;28;20562;-60
2022/03/20 19:19:13;;;;;;;23.67;11.55;;;10.60;99.90;;;;;;5018075;28;20021;-62
2022/03/20 19:21:39;;;;;;;24.15;10.35;;;10.60;99.90;;;;;;5019994;28;20706;-61
2022/03/20 19:24:05;;;;;;;25.67;10.63;;;10.60;99.90;;;;;;5020761;28;20041;-60
2022/03/20 19:26:31;;;;;;;31.35;11.65;;;10.50;99.90;;;;;;5015695;28;20037;-60
2022/03/20 19:28:57;;;;;;;33.47;12.02;;;10.50;99.90;;;;;;5021284;28;20567;-61
2022/03/20 19:31:23;;;;;;;25.95;12.10;;;10.40;99.90;;;;;;5020001;28;20164;-61
2022/03/20 19:39:53;;;;;;;20.80;11.57;;;10.40;99.90;;;;;;5017497;28;20022;-55
2022/03/20 19:42:05;;;;;;;25.52;12.05;;;10.40;99.90;;;;;;5013967;28;20116;-63
2022/03/20 19:44:30;;;;;;;23.70;11.40;;;10.40;99.90;;;;;;5016389;28;20030;-60
2022/03/20 19:46:56;;;;;;;32.78;12.20;;;10.30;99.90;;;;;;5015597;28;20029;-62
2022/03/20 19:49:21;;;;;;;20.98;10.48;;;10.30;99.90;;;;;;5017882;28;20052;-60
2022/03/20 19:51:47;;;;;;;19.83;11.32;;;10.30;99.90;;;;;;5017809;28;20049;-63
2022/03/20 19:54:13;;;;;;;24.73;12.35;;;10.40;99.90;;;;;;5014299;28;20124;-57
2022/03/20 19:56:38;;;;;;;28.73;11.60;;;10.40;99.90;;;;;;5019261;28;20028;-60
2022/03/20 19:59:04;;;;;;;25.75;12.10;;;10.40;99.90;;;;;;5022508;28;20028;-66
2022/03/20 20:01:31;;;;;;;26.63;12.10;;;10.40;99.90;;;;;;5017337;28;20466;-63
2022/03/20 20:03:57;;;;;;;24.67;12.18;;;10.40;99.90;;;;;;5016442;28;20022;-59
2022/03/20 20:06:23;;;;;;;23.05;11.88;;;10.40;99.90;;;;;;5011557;28;20644;-60
2022/03/20 20:08:48;;;;;;;25.30;11.98;;;10.40;99.90;;;;;;5042220;23;20041;-55
2022/03/20 20:11:14;;;;;;;24.38;11.60;;;10.50;99.90;;;;;;5024007;28;20045;-58
2022/03/20 20:16:24;;;;;;;24.13;12.18;;;10.50;99.90;;;;;;5020213;28;20080;-57
2022/03/20 20:18:49;;;;;;;24.70;12.20;;;10.40;99.90;;;;;;5022783;28;20045;-55
2022/03/20 20:21:15;;;;;;;27.50;11.85;;;10.40;99.90;;;;;;5024231;28;20546;-55
2022/03/20 20:23:40;;;;;;;31.10;12.32;;;10.40;99.90;;;;;;5022596;28;20812;-56
2022/03/20 20:26:06;;;;;;;25.73;11.20;;;10.40;99.90;;;;;;5029795;28;20037;-57
2022/03/20 20:28:31;;;;;;;26.65;12.30;;;10.30;99.90;;;;;;5031367;28;20037;-57
2022/03/20 20:30:57;;;;;;;24.90;12.23;;;10.30;99.90;;;;;;5021287;28;20041;-53
2022/03/20 20:33:22;;;;;;;27.23;11.88;;;10.30;99.90;;;;;;5024347;28;20033;-56
2022/03/20 20:35:48;;;;;;;23.42;12.45;;;10.20;99.90;;;;;;5023284;28;20022;-59
2022/03/20 20:38:14;;;;;;;27.83;12.07;;;10.10;99.90;;;;;;5016424;28;20042;-58
2022/03/20 20:40:40;;;;;;;28.52;13.07;;;10.00;99.90;;;;;;5018967;28;20690;-55
2022/03/20 20:43:06;;;;;;;26.38;12.25;;;9.90;99.90;;;;;;5017506;28;20038;-55
2022/03/20 20:45:32;;;;;;;26.13;11.90;;;9.90;99.90;;;;;;5023161;28;20037;-56
2022/03/20 20:47:57;;;;;;;23.40;11.85;;;9.80;99.90;;;;;;5027377;28;20025;-56
2022/03/20 20:50:23;;;;;;;21.52;11.30;;;9.60;99.90;;;;;;5030335;28;20033;-55
2022/03/20 20:52:49;;;;;;;28.48;12.02;;;9.70;99.90;;;;;;5026281;28;20029;-57
2022/03/20 20:55:15;;;;;;;23.90;11.68;;;9.70;99.90;;;;;;5029358;28;20114;-55
2022/03/20 20:57:41;;;;;;;23.98;12.13;;;9.60;99.90;;;;;;5028755;28;20385;-55
2022/03/20 21:00:08;;;;;;;22.17;11.65;;;9.50;99.90;;;;;;5021497;28;20028;-55
2022/03/20 21:02:34;;;;;;;31.35;13.45;;;9.50;99.90;;;;;;5026582;28;20480;-56
2022/03/20 21:04:59;;;;;;;30.70;13.38;;;9.60;99.90;;;;;;5023481;28;20157;-57
2022/03/20 21:12:53;;;;;;;27.95;12.50;;;9.70;99.90;;;;;;5027287;28;20572;-54
2022/03/20 21:15:19;;;;;;;26.50;12.65;;;9.80;99.90;;;;;;5027142;28;20033;-55
2022/03/20 21:17:45;;;;;;;26.30;12.45;;;9.80;99.90;;;;;;5035205;28;20073;-56
2022/03/20 21:20:13;;;;;;;32.33;13.90;;;9.80;99.90;;;;;;5032676;28;20070;-55
2022/03/20 21:22:43;;;;;;;30.35;13.15;;;9.70;99.90;;;;;;5029302;28;20033;-54
2022/03/20 21:25:10;;;;;;;28.98;13.43;;;9.60;99.90;;;;;;5030486;28;20026;-56
2022/03/20 21:27:37;;;;;;;31.33;13.18;;;9.70;99.90;;;;;;5031552;28;20076;-55
2022/03/20 21:30:04;;;;;;;30.05;12.98;;;9.70;99.90;;;;;;5027465;28;20086;-56
2022/03/20 21:32:30;;;;;;;31.95;13.85;;;9.50;99.90;;;;;;5030706;28;20028;-54
2022/03/20 21:34:56;;;;;;;25.48;12.52;;;9.50;99.90;;;;;;5033910;28;20037;-57
2022/03/20 21:37:22;;;;;;;29.70;12.48;;;9.40;99.90;;;;;;5030500;28;20156;-56
2022/03/20 21:39:48;;;;;;;28.50;12.98;;;9.30;99.90;;;;;;5031743;28;20108;-51
2022/03/20 21:42:13;;;;;;;27.73;12.18;;;9.30;99.90;;;;;;5031576;28;20099;-56
2022/03/20 21:44:39;;;;;;;30.70;14.65;;;9.30;99.90;;;;;;5029227;28;20034;-58
2022/03/20 21:47:05;;;;;;;24.42;11.60;;;9.30;99.90;;;;;;5025247;28;20424;-56
2022/03/20 21:49:31;;;;;;;23.83;11.98;;;9.40;99.90;;;;;;5027991;28;20040;-55
2022/03/20 21:51:57;;;;;;;25.48;14.07;;;9.40;99.90;;;;;;5029982;28;20048;-57
2022/03/20 21:54:24;;;;;;;26.80;12.93;;;9.40;99.90;;;;;;5032804;28;20029;-60
2022/03/20 21:56:50;;;;;;;30.27;12.95;;;9.50;99.90;;;;;;5024847;28;20413;-57
2022/03/20 21:59:16;;;;;;;32.25;12.95;;;9.40;99.90;;;;;;5028906;28;20475;-57
2022/03/20 22:01:41;;;;;;;28.65;13.40;;;9.30;99.90;;;;;;5025217;28;20036;-58
2022/03/20 22:04:07;;;;;;;32.13;13.63;;;9.20;99.90;;;;;;5010769;28;20041;-58
2022/03/20 22:06:33;;;;;;;33.10;13.00;;;9.10;99.90;;;;;;5030550;28;20059;-56
2022/03/20 22:08:59;;;;;;;28.45;12.63;;;9.00;99.90;;;;;;5028672;28;20102;-55
2022/03/20 22:11:24;;;;;;;31.17;13.10;;;8.90;99.90;;;;;;5030012;28;20451;-57
2022/03/20 22:13:50;;;;;;;30.58;13.45;;;9.00;99.90;;;;;;5023049;28;20034;-57
2022/03/20 22:16:16;;;;;;;31.50;13.70;;;9.00;99.90;;;;;;5029132;28;20100;-57
2022/03/20 22:18:43;;;;;;;22.45;11.82;;;8.90;99.90;;;;;;5028354;28;20057;-57
2022/03/20 22:21:09;;;;;;;26.30;12.60;;;8.90;99.90;;;;;;5028683;28;20021;-57
2022/03/20 22:23:35;;;;;;;22.05;11.25;;;9.00;99.90;;;;;;5033154;28;20617;-57
2022/03/20 22:26:04;;;;;;;29.48;11.75;;;9.10;99.90;;;;;;5030050;28;20025;-58
2022/03/20 22:28:31;;;;;;;29.10;12.07;;;9.10;99.90;;;;;;5031756;28;20049;-54
2022/03/20 22:30:56;;;;;;;26.45;11.85;;;9.10;99.90;;;;;;5027293;28;20107;-53
2022/03/20 22:33:22;;;;;;;29.02;12.70;;;9.00;99.90;;;;;;5029229;28;20452;-53
2022/03/20 22:38:31;;;;;;;24.45;12.48;;;8.90;99.90;;;;;;5028319;28;20079;-54
2022/03/20 22:40:57;;;;;;;28.13;12.77;;;8.80;99.90;;;;;;5029431;28;20037;-55
2022/03/20 22:43:27;;;;;;;25.30;11.95;;;8.80;99.90;;;;;;5029330;28;20032;-55
2022/03/20 22:45:54;;;;;;;28.83;12.65;;;8.80;99.90;;;;;;5027914;28;20100;-53
2022/03/20 22:51:06;;;;;;;;;;;8.80;99.90;;;;;;5029114;28;20125;-55
2022/03/20 22:53:32;;;;;;;32.60;12.60;;;8.80;99.90;;;;;;5029080;28;19971;-53
2022/03/20 22:55:57;;;;;;;28.10;12.80;;;8.90;99.90;;;;;;5029825;28;20035;-54
2022/03/20 22:58:23;;;;;;;33.38;12.68;;;8.90;99.90;;;;;;5026503;28;20018;-56
2022/03/20 23:00:48;;;;;;;26.10;12.98;;;8.90;99.90;;;;;;5028451;28;20556;-56
2022/03/20 23:03:14;;;;;;;35.50;13.75;;;9.00;99.90;;;;;;5030160;28;20029;-53
2022/03/20 23:05:39;;;;;;;30.60;13.55;;;9.10;99.90;;;;;;5028697;28;20044;-56
2022/03/20 23:08:05;;;;;;;30.00;13.57;;;9.10;99.90;;;;;;5029042;28;20053;-52
2022/03/20 23:10:31;;;;;;;34.50;13.32;;;9.20;99.90;;;;;;5029007;28;20052;-53
2022/03/20 23:12:57;;;;;;;27.60;14.20;;;9.20;99.90;;;;;;5027476;28;20029;-53
2022/03/20 23:15:25;;;;;;;32.05;13.82;;;9.30;99.90;;;;;;5028263;28;20036;-54
2022/03/20 23:17:51;;;;;;;38.85;13.52;;;9.30;99.90;;;;;;5034378;28;20049;-55
2022/03/20 23:20:17;;;;;;;25.83;12.38;;;9.30;99.90;;;;;;5028271;28;20123;-55
2022/03/20 23:22:46;;;;;;;29.45;13.18;;;9.40;99.90;;;;;;5028674;28;20083;-56
2022/03/20 23:25:21;;;;;;;28.77;12.95;;;9.30;99.90;;;;;;5028014;28;20041;-56
2022/03/20 23:27:48;;;;;;;29.17;12.65;;;9.30;99.90;;;;;;5025600;28;20407;-54
2022/03/20 23:30:14;;;;;;;33.28;13.10;;;9.30;99.90;;;;;;5027467;28;20495;-54
2022/03/20 23:32:40;;;;;;;28.67;13.50;;;9.20;99.90;;;;;;5020859;28;20037;-55
2022/03/20 23:35:06;;;;;;;27.10;13.02;;;9.00;99.90;;;;;;5029034;28;20045;-55
2022/03/20 23:37:34;;;;;;;28.60;12.73;;;8.90;99.90;;;;;;5028128;28;20017;-57
2022/03/20 23:40:00;;;;;;;26.95;13.13;;;8.80;99.90;;;;;;5027482;28;20030;-55
2022/03/20 23:45:10;;;;;;;30.50;14.48;;;8.90;99.90;;;;;;5026571;28;20032;-55
2022/03/20 23:47:35;;;;;;;28.25;13.82;;;9.00;99.90;;;;;;5023092;28;20029;-53
2022/03/20 23:50:03;;;;;;;38.60;14.43;;;9.00;99.90;;;;;;5027629;28;20403;-56
2022/03/20 23:52:29;;;;;;;31.02;14.82;;;8.90;99.90;;;;;;5027991;28;20029;-55
2022/03/20 23:54:54;;;;;;;38.90;14.10;;;8.90;99.90;;;;;;5026381;28;20022;-57
2022/03/20 23:57:20;;;;;;;32.00;15.10;;;8.90;99.90;;;;;;5028218;28;20108;-55
2022/03/20 23:59:45;;;;;;;30.05;14.20;;;9.00;99.90;;;;;;5029479;28;20028;-55
